Edgar, Wisconsin
Current Conditions -  °F | °C
As of 6:54 AM on Friday 24 Oct 2014 (Local Time) from KAUW Reporting Station
Haze Haze  
Wind Chill: 42°   Ceiling: 300
Heat Index: 44°   Visibility: 0.75mi
Dew Point: 44°   Wind: 5mph
Humidity: 100%   Direction: 250°WSW
Pressure: 30"   Gusts: NA
Location:  44.93°N, 89.96°W
Report Text: KAUW 241154Z AUTO 25004KT 3/4SM BR OVC003 07/07 A3000 RMK AO2 SLP169 70016 T00670067 10078 20067 50003
Loading
Personal Weather Stations






























Interactive Weather Map
Tropical Storm Tracking
New forecast layout! Learn more

10-Day Weather Forecast

Advertisements
Track Severe Weather on mobile